sensor_id;sensor_type;location;lat;lon;timestamp;P1;durP1;ratioP1;P2;durP2;ratioP2
71814;SDS011;59659;41.520;23.794;2023-07-13T00:00:44;9.63;;;6.57;;
71814;SDS011;59659;41.520;23.794;2023-07-13T00:01:55;10.57;;;6.20;;
71814;SDS011;59659;41.520;23.794;2023-07-13T00:03:07;11.07;;;6.20;;
71814;SDS011;59659;41.520;23.794;2023-07-13T00:04:20;11.73;;;7.00;;
71814;SDS011;59659;41.520;23.794;2023-07-13T00:05:32;9.93;;;6.37;;
71814;SDS011;59659;41.520;23.794;2023-07-13T00:06:44;12.73;;;7.33;;
71814;SDS011;59659;41.520;23.794;2023-07-13T00:07:58;11.03;;;6.03;;
71814;SDS011;59659;41.520;23.794;2023-07-13T00:09:13;9.40;;;6.23;;
71814;SDS011;59659;41.520;23.794;2023-07-13T00:10:26;10.10;;;7.27;;
71814;SDS011;59659;41.520;23.794;2023-07-13T00:11:38;8.23;;;6.10;;
71814;SDS011;59659;41.520;23.794;2023-07-13T00:12:49;10.10;;;6.70;;
71814;SDS011;59659;41.520;23.794;2023-07-13T00:14:01;11.90;;;6.77;;
71814;SDS011;59659;41.520;23.794;2023-07-13T00:15:23;10.27;;;6.63;;
71814;SDS011;59659;41.520;23.794;2023-07-13T00:16:36;9.63;;;6.30;;
71814;SDS011;59659;41.520;23.794;2023-07-13T00:17:52;13.40;;;7.10;;
71814;SDS011;59659;41.520;23.794;2023-07-13T00:19:04;15.43;;;6.70;;
71814;SDS011;59659;41.520;23.794;2023-07-13T00:20:16;10.50;;;6.60;;
71814;SDS011;59659;41.520;23.794;2023-07-13T00:21:28;10.13;;;6.53;;
71814;SDS011;59659;41.520;23.794;2023-07-13T00:22:40;10.63;;;6.57;;
71814;SDS011;59659;41.520;23.794;2023-07-13T00:23:51;10.63;;;6.37;;
71814;SDS011;59659;41.520;23.794;2023-07-13T00:25:03;11.27;;;7.33;;
71814;SDS011;59659;41.520;23.794;2023-07-13T00:26:15;11.13;;;6.87;;
71814;SDS011;59659;41.520;23.794;2023-07-13T00:27:26;12.60;;;7.83;;
71814;SDS011;59659;41.520;23.794;2023-07-13T00:28:38;11.27;;;6.30;;
71814;SDS011;59659;41.520;23.794;2023-07-13T00:29:51;9.30;;;6.10;;
71814;SDS011;59659;41.520;23.794;2023-07-13T00:31:02;9.00;;;5.80;;
71814;SDS011;59659;41.520;23.794;2023-07-13T00:32:17;10.50;;;6.37;;
71814;SDS011;59659;41.520;23.794;2023-07-13T00:33:29;12.47;;;6.70;;
71814;SDS011;59659;41.520;23.794;2023-07-13T00:34:40;9.97;;;6.57;;
71814;SDS011;59659;41.520;23.794;2023-07-13T00:35:53;11.23;;;6.97;;
71814;SDS011;59659;41.520;23.794;2023-07-13T00:37:06;14.87;;;6.40;;
71814;SDS011;59659;41.520;23.794;2023-07-13T00:38:17;9.47;;;5.90;;
71814;SDS011;59659;41.520;23.794;2023-07-13T00:39:29;9.90;;;6.00;;
71814;SDS011;59659;41.520;23.794;2023-07-13T00:40:41;10.43;;;6.10;;
71814;SDS011;59659;41.520;23.794;2023-07-13T00:41:52;9.27;;;6.60;;
71814;SDS011;59659;41.520;23.794;2023-07-13T00:43:08;12.10;;;6.07;;
71814;SDS011;59659;41.520;23.794;2023-07-13T00:44:20;8.70;;;5.73;;
71814;SDS011;59659;41.520;23.794;2023-07-13T00:46:55;10.23;;;5.60;;
71814;SDS011;59659;41.520;23.794;2023-07-13T00:48:09;11.57;;;6.77;;
71814;SDS011;59659;41.520;23.794;2023-07-13T00:49:22;12.07;;;6.80;;
71814;SDS011;59659;41.520;23.794;2023-07-13T00:50:34;12.13;;;6.47;;
71814;SDS011;59659;41.520;23.794;2023-07-13T00:51:53;11.13;;;6.63;;
71814;SDS011;59659;41.520;23.794;2023-07-13T00:53:06;10.03;;;6.63;;
71814;SDS011;59659;41.520;23.794;2023-07-13T00:54:21;13.23;;;7.37;;
71814;SDS011;59659;41.520;23.794;2023-07-13T00:55:33;11.87;;;6.80;;
71814;SDS011;59659;41.520;23.794;2023-07-13T00:56:46;11.17;;;6.00;;
71814;SDS011;59659;41.520;23.794;2023-07-13T00:57:57;8.83;;;6.20;;
71814;SDS011;59659;41.520;23.794;2023-07-13T00:59:10;9.73;;;6.60;;
71814;SDS011;59659;41.520;23.794;2023-07-13T01:00:22;15.20;;;7.47;;
71814;SDS011;59659;41.520;23.794;2023-07-13T01:01:34;8.27;;;6.17;;
71814;SDS011;59659;41.520;23.794;2023-07-13T01:02:47;10.47;;;6.70;;
71814;SDS011;59659;41.520;23.794;2023-07-13T01:04:00;9.30;;;6.10;;
71814;SDS011;59659;41.520;23.794;2023-07-13T01:05:16;11.50;;;7.47;;
71814;SDS011;59659;41.520;23.794;2023-07-13T01:06:27;10.47;;;6.17;;
71814;SDS011;59659;41.520;23.794;2023-07-13T01:07:40;10.97;;;6.80;;
71814;SDS011;59659;41.520;23.794;2023-07-13T01:08:52;12.90;;;6.83;;
71814;SDS011;59659;41.520;23.794;2023-07-13T01:10:03;12.50;;;7.00;;
71814;SDS011;59659;41.520;23.794;2023-07-13T01:11:20;10.00;;;6.07;;
71814;SDS011;59659;41.520;23.794;2023-07-13T01:12:32;9.57;;;6.07;;
71814;SDS011;59659;41.520;23.794;2023-07-13T01:13:44;9.53;;;6.87;;
71814;SDS011;59659;41.520;23.794;2023-07-13T01:14:59;11.20;;;7.17;;
71814;SDS011;59659;41.520;23.794;2023-07-13T01:16:13;13.27;;;6.27;;
71814;SDS011;59659;41.520;23.794;2023-07-13T01:17:27;12.20;;;6.00;;
71814;SDS011;59659;41.520;23.794;2023-07-13T01:18:39;9.33;;;6.03;;
71814;SDS011;59659;41.520;23.794;2023-07-13T01:19:50;8.87;;;6.27;;
71814;SDS011;59659;41.520;23.794;2023-07-13T01:21:03;11.30;;;5.77;;
71814;SDS011;59659;41.520;23.794;2023-07-13T01:22:16;9.83;;;6.83;;
71814;SDS011;59659;41.520;23.794;2023-07-13T01:23:28;11.57;;;6.93;;
71814;SDS011;59659;41.520;23.794;2023-07-13T01:24:41;9.30;;;6.33;;
71814;SDS011;59659;41.520;23.794;2023-07-13T01:25:54;10.53;;;6.30;;
71814;SDS011;59659;41.520;23.794;2023-07-13T01:27:07;12.43;;;7.13;;
71814;SDS011;59659;41.520;23.794;2023-07-13T01:28:19;14.33;;;6.40;;
71814;SDS011;59659;41.520;23.794;2023-07-13T01:29:31;13.77;;;6.80;;
71814;SDS011;59659;41.520;23.794;2023-07-13T01:30:43;13.27;;;7.10;;
71814;SDS011;59659;41.520;23.794;2023-07-13T01:31:56;10.40;;;6.50;;
71814;SDS011;59659;41.520;23.794;2023-07-13T01:33:08;13.53;;;6.90;;
71814;SDS011;59659;41.520;23.794;2023-07-13T01:34:21;8.53;;;6.50;;
71814;SDS011;59659;41.520;23.794;2023-07-13T01:35:33;10.93;;;7.50;;
71814;SDS011;59659;41.520;23.794;2023-07-13T01:36:44;12.30;;;6.63;;
71814;SDS011;59659;41.520;23.794;2023-07-13T01:37:56;10.73;;;6.90;;
71814;SDS011;59659;41.520;23.794;2023-07-13T01:39:08;13.03;;;7.73;;
71814;SDS011;59659;41.520;23.794;2023-07-13T01:40:20;10.00;;;6.80;;
71814;SDS011;59659;41.520;23.794;2023-07-13T01:41:32;14.57;;;6.57;;
71814;SDS011;59659;41.520;23.794;2023-07-13T01:42:43;10.37;;;6.93;;
71814;SDS011;59659;41.520;23.794;2023-07-13T01:43:55;12.23;;;6.77;;
71814;SDS011;59659;41.520;23.794;2023-07-13T01:45:07;9.80;;;6.33;;
71814;SDS011;59659;41.520;23.794;2023-07-13T01:46:18;12.57;;;7.30;;
71814;SDS011;59659;41.520;23.794;2023-07-13T01:47:34;15.43;;;7.63;;
71814;SDS011;59659;41.520;23.794;2023-07-13T01:48:46;11.80;;;7.80;;
71814;SDS011;59659;41.520;23.794;2023-07-13T01:49:57;9.27;;;6.83;;
71814;SDS011;59659;41.520;23.794;2023-07-13T01:51:09;12.57;;;6.93;;
71814;SDS011;59659;41.520;23.794;2023-07-13T01:52:20;10.30;;;7.27;;
71814;SDS011;59659;41.520;23.794;2023-07-13T01:53:32;10.67;;;6.47;;
71814;SDS011;59659;41.520;23.794;2023-07-13T01:54:43;13.60;;;7.70;;
71814;SDS011;59659;41.520;23.794;2023-07-13T01:55:55;10.73;;;6.73;;
71814;SDS011;59659;41.520;23.794;2023-07-13T01:57:06;12.20;;;6.87;;
71814;SDS011;59659;41.520;23.794;2023-07-13T01:58:18;11.47;;;6.73;;
71814;SDS011;59659;41.520;23.794;2023-07-13T01:59:29;10.50;;;6.13;;
71814;SDS011;59659;41.520;23.794;2023-07-13T02:00:41;11.90;;;6.67;;
71814;SDS011;59659;41.520;23.794;2023-07-13T02:01:52;10.17;;;6.67;;
71814;SDS011;59659;41.520;23.794;2023-07-13T02:03:04;11.10;;;7.00;;
71814;SDS011;59659;41.520;23.794;2023-07-13T02:04:16;9.80;;;6.03;;
71814;SDS011;59659;41.520;23.794;2023-07-13T02:05:27;10.70;;;7.37;;
71814;SDS011;59659;41.520;23.794;2023-07-13T02:06:39;11.37;;;6.40;;
71814;SDS011;59659;41.520;23.794;2023-07-13T02:07:50;8.40;;;6.07;;
71814;SDS011;59659;41.520;23.794;2023-07-13T02:09:02;11.10;;;6.47;;
71814;SDS011;59659;41.520;23.794;2023-07-13T02:10:14;10.30;;;6.33;;
71814;SDS011;59659;41.520;23.794;2023-07-13T02:11:25;10.83;;;6.47;;
71814;SDS011;59659;41.520;23.794;2023-07-13T02:12:44;13.87;;;7.70;;
71814;SDS011;59659;41.520;23.794;2023-07-13T02:13:55;13.00;;;6.80;;
71814;SDS011;59659;41.520;23.794;2023-07-13T02:15:07;9.27;;;6.93;;
71814;SDS011;59659;41.520;23.794;2023-07-13T02:16:19;11.50;;;6.60;;
71814;SDS011;59659;41.520;23.794;2023-07-13T02:17:30;11.43;;;7.03;;
71814;SDS011;59659;41.520;23.794;2023-07-13T02:18:42;11.23;;;6.80;;
71814;SDS011;59659;41.520;23.794;2023-07-13T02:19:54;15.07;;;6.93;;
71814;SDS011;59659;41.520;23.794;2023-07-13T02:21:05;9.33;;;6.53;;
71814;SDS011;59659;41.520;23.794;2023-07-13T02:22:17;9.87;;;6.77;;
71814;SDS011;59659;41.520;23.794;2023-07-13T02:23:29;12.80;;;6.23;;
71814;SDS011;59659;41.520;23.794;2023-07-13T02:24:41;9.90;;;6.40;;
71814;SDS011;59659;41.520;23.794;2023-07-13T02:25:56;11.87;;;6.07;;
71814;SDS011;59659;41.520;23.794;2023-07-13T02:27:07;12.50;;;6.83;;
71814;SDS011;59659;41.520;23.794;2023-07-13T02:28:19;12.93;;;6.70;;
71814;SDS011;59659;41.520;23.794;2023-07-13T02:29:30;12.63;;;6.53;;
71814;SDS011;59659;41.520;23.794;2023-07-13T02:30:42;13.20;;;7.10;;
71814;SDS011;59659;41.520;23.794;2023-07-13T02:31:53;12.17;;;6.57;;
71814;SDS011;59659;41.520;23.794;2023-07-13T02:33:05;18.67;;;6.30;;
71814;SDS011;59659;41.520;23.794;2023-07-13T02:34:17;11.83;;;6.23;;
71814;SDS011;59659;41.520;23.794;2023-07-13T02:35:28;13.10;;;6.40;;
71814;SDS011;59659;41.520;23.794;2023-07-13T02:36:40;17.97;;;6.50;;
71814;SDS011;59659;41.520;23.794;2023-07-13T02:37:52;9.83;;;6.13;;
71814;SDS011;59659;41.520;23.794;2023-07-13T02:39:04;11.13;;;6.40;;
71814;SDS011;59659;41.520;23.794;2023-07-13T02:40:16;9.53;;;5.80;;
71814;SDS011;59659;41.520;23.794;2023-07-13T02:41:28;10.70;;;6.70;;
71814;SDS011;59659;41.520;23.794;2023-07-13T02:42:39;10.30;;;6.70;;
71814;SDS011;59659;41.520;23.794;2023-07-13T02:43:51;12.47;;;7.90;;
71814;SDS011;59659;41.520;23.794;2023-07-13T02:45:03;13.87;;;7.63;;
71814;SDS011;59659;41.520;23.794;2023-07-13T02:46:15;18.07;;;8.30;;
71814;SDS011;59659;41.520;23.794;2023-07-13T02:47:26;24.20;;;8.20;;
71814;SDS011;59659;41.520;23.794;2023-07-13T02:48:38;10.30;;;7.10;;
71814;SDS011;59659;41.520;23.794;2023-07-13T02:49:50;11.57;;;7.60;;
71814;SDS011;59659;41.520;23.794;2023-07-13T02:51:02;11.20;;;7.40;;
71814;SDS011;59659;41.520;23.794;2023-07-13T02:52:13;13.47;;;7.90;;
71814;SDS011;59659;41.520;23.794;2023-07-13T02:53:25;12.40;;;7.43;;
71814;SDS011;59659;41.520;23.794;2023-07-13T02:54:36;14.63;;;7.57;;
71814;SDS011;59659;41.520;23.794;2023-07-13T02:55:48;12.43;;;8.07;;
71814;SDS011;59659;41.520;23.794;2023-07-13T02:56:59;16.40;;;8.80;;
71814;SDS011;59659;41.520;23.794;2023-07-13T02:58:11;15.27;;;7.73;;
71814;SDS011;59659;41.520;23.794;2023-07-13T02:59:23;16.33;;;7.63;;
71814;SDS011;59659;41.520;23.794;2023-07-13T03:00:34;12.60;;;7.57;;
71814;SDS011;59659;41.520;23.794;2023-07-13T03:01:51;22.80;;;9.00;;
71814;SDS011;59659;41.520;23.794;2023-07-13T03:03:03;13.53;;;7.63;;
71814;SDS011;59659;41.520;23.794;2023-07-13T03:04:14;13.60;;;7.47;;
71814;SDS011;59659;41.520;23.794;2023-07-13T03:05:30;10.90;;;7.40;;
71814;SDS011;59659;41.520;23.794;2023-07-13T03:06:42;13.77;;;7.07;;
71814;SDS011;59659;41.520;23.794;2023-07-13T03:07:53;15.50;;;7.63;;
71814;SDS011;59659;41.520;23.794;2023-07-13T03:09:05;11.90;;;7.23;;
71814;SDS011;59659;41.520;23.794;2023-07-13T03:10:16;14.37;;;6.93;;
71814;SDS011;59659;41.520;23.794;2023-07-13T03:11:28;10.10;;;7.00;;
71814;SDS011;59659;41.520;23.794;2023-07-13T03:12:39;11.93;;;6.77;;
71814;SDS011;59659;41.520;23.794;2023-07-13T03:13:51;13.07;;;6.30;;
71814;SDS011;59659;41.520;23.794;2023-07-13T03:15:03;7.47;;;5.63;;
71814;SDS011;59659;41.520;23.794;2023-07-13T03:16:14;9.90;;;6.40;;
71814;SDS011;59659;41.520;23.794;2023-07-13T03:17:30;10.27;;;6.00;;
71814;SDS011;59659;41.520;23.794;2023-07-13T03:18:42;10.90;;;6.47;;
71814;SDS011;59659;41.520;23.794;2023-07-13T03:19:54;12.27;;;6.83;;
71814;SDS011;59659;41.520;23.794;2023-07-13T03:21:05;10.40;;;6.83;;
71814;SDS011;59659;41.520;23.794;2023-07-13T03:22:17;11.30;;;6.70;;
71814;SDS011;59659;41.520;23.794;2023-07-13T03:23:29;10.13;;;6.83;;
71814;SDS011;59659;41.520;23.794;2023-07-13T03:24:41;8.80;;;6.10;;
71814;SDS011;59659;41.520;23.794;2023-07-13T03:26:12;11.23;;;6.33;;
71814;SDS011;59659;41.520;23.794;2023-07-13T03:27:24;14.00;;;6.63;;
71814;SDS011;59659;41.520;23.794;2023-07-13T03:28:36;8.53;;;5.70;;
71814;SDS011;59659;41.520;23.794;2023-07-13T03:29:47;10.40;;;6.47;;
71814;SDS011;59659;41.520;23.794;2023-07-13T03:31:00;12.20;;;6.77;;
71814;SDS011;59659;41.520;23.794;2023-07-13T03:32:12;12.63;;;6.93;;
71814;SDS011;59659;41.520;23.794;2023-07-13T03:33:23;12.33;;;6.87;;
71814;SDS011;59659;41.520;23.794;2023-07-13T03:34:35;16.90;;;6.73;;
71814;SDS011;59659;41.520;23.794;2023-07-13T03:35:47;8.97;;;5.90;;
71814;SDS011;59659;41.520;23.794;2023-07-13T03:36:58;11.47;;;6.97;;
71814;SDS011;59659;41.520;23.794;2023-07-13T03:38:10;10.67;;;5.80;;
71814;SDS011;59659;41.520;23.794;2023-07-13T03:39:21;8.97;;;6.57;;
71814;SDS011;59659;41.520;23.794;2023-07-13T03:40:33;8.27;;;5.63;;
71814;SDS011;59659;41.520;23.794;2023-07-13T03:41:45;9.90;;;6.13;;
71814;SDS011;59659;41.520;23.794;2023-07-13T03:42:56;9.90;;;5.87;;
71814;SDS011;59659;41.520;23.794;2023-07-13T03:44:08;13.63;;;7.23;;
71814;SDS011;59659;41.520;23.794;2023-07-13T03:45:19;8.90;;;5.97;;
71814;SDS011;59659;41.520;23.794;2023-07-13T03:46:31;15.93;;;6.97;;
71814;SDS011;59659;41.520;23.794;2023-07-13T03:47:43;8.20;;;5.70;;
71814;SDS011;59659;41.520;23.794;2023-07-13T03:48:54;9.87;;;6.00;;
71814;SDS011;59659;41.520;23.794;2023-07-13T03:50:06;9.83;;;6.77;;
71814;SDS011;59659;41.520;23.794;2023-07-13T03:51:18;11.27;;;6.40;;
71814;SDS011;59659;41.520;23.794;2023-07-13T03:52:29;10.40;;;6.90;;
71814;SDS011;59659;41.520;23.794;2023-07-13T03:53:41;10.77;;;6.73;;
71814;SDS011;59659;41.520;23.794;2023-07-13T03:54:53;12.87;;;6.77;;
71814;SDS011;59659;41.520;23.794;2023-07-13T03:56:05;13.13;;;7.13;;
71814;SDS011;59659;41.520;23.794;2023-07-13T03:57:17;11.93;;;5.60;;
71814;SDS011;59659;41.520;23.794;2023-07-13T03:58:31;7.67;;;5.47;;
71814;SDS011;59659;41.520;23.794;2023-07-13T03:59:43;14.90;;;7.17;;
71814;SDS011;59659;41.520;23.794;2023-07-13T04:00:54;11.90;;;6.63;;
71814;SDS011;59659;41.520;23.794;2023-07-13T04:02:06;13.13;;;6.63;;
71814;SDS011;59659;41.520;23.794;2023-07-13T04:03:18;10.23;;;6.03;;
71814;SDS011;59659;41.520;23.794;2023-07-13T04:04:30;11.63;;;6.70;;
71814;SDS011;59659;41.520;23.794;2023-07-13T04:05:42;10.00;;;5.70;;
71814;SDS011;59659;41.520;23.794;2023-07-13T04:06:53;10.93;;;6.90;;
71814;SDS011;59659;41.520;23.794;2023-07-13T04:08:05;13.87;;;7.37;;
71814;SDS011;59659;41.520;23.794;2023-07-13T04:09:16;9.67;;;5.90;;
71814;SDS011;59659;41.520;23.794;2023-07-13T04:10:28;10.77;;;6.23;;
71814;SDS011;59659;41.520;23.794;2023-07-13T04:11:39;10.73;;;6.63;;
71814;SDS011;59659;41.520;23.794;2023-07-13T04:12:51;10.10;;;6.00;;
71814;SDS011;59659;41.520;23.794;2023-07-13T04:14:03;9.37;;;6.87;;
71814;SDS011;59659;41.520;23.794;2023-07-13T04:15:14;14.60;;;7.67;;
71814;SDS011;59659;41.520;23.794;2023-07-13T04:16:26;12.03;;;7.03;;
71814;SDS011;59659;41.520;23.794;2023-07-13T04:17:37;17.37;;;7.00;;
71814;SDS011;59659;41.520;23.794;2023-07-13T04:18:49;13.87;;;7.50;;
71814;SDS011;59659;41.520;23.794;2023-07-13T04:20:01;13.77;;;7.27;;
71814;SDS011;59659;41.520;23.794;2023-07-13T04:21:12;16.50;;;7.30;;
71814;SDS011;59659;41.520;23.794;2023-07-13T04:22:24;14.37;;;7.43;;
71814;SDS011;59659;41.520;23.794;2023-07-13T04:23:36;11.97;;;7.50;;
71814;SDS011;59659;41.520;23.794;2023-07-13T04:24:48;11.97;;;7.40;;
71814;SDS011;59659;41.520;23.794;2023-07-13T04:25:59;10.97;;;7.87;;
71814;SDS011;59659;41.520;23.794;2023-07-13T04:27:11;12.80;;;8.50;;
71814;SDS011;59659;41.520;23.794;2023-07-13T04:28:23;13.67;;;7.40;;
71814;SDS011;59659;41.520;23.794;2023-07-13T04:29:35;11.57;;;7.33;;
71814;SDS011;59659;41.520;23.794;2023-07-13T04:30:47;13.37;;;8.10;;
71814;SDS011;59659;41.520;23.794;2023-07-13T04:31:58;13.70;;;7.03;;
71814;SDS011;59659;41.520;23.794;2023-07-13T04:33:10;24.63;;;8.10;;
71814;SDS011;59659;41.520;23.794;2023-07-13T04:34:21;15.37;;;8.47;;
71814;SDS011;59659;41.520;23.794;2023-07-13T04:35:33;12.13;;;7.60;;
71814;SDS011;59659;41.520;23.794;2023-07-13T04:36:44;14.27;;;7.30;;
71814;SDS011;59659;41.520;23.794;2023-07-13T04:37:56;12.53;;;8.70;;
71814;SDS011;59659;41.520;23.794;2023-07-13T04:39:07;17.63;;;8.20;;
71814;SDS011;59659;41.520;23.794;2023-07-13T04:40:20;19.77;;;8.23;;
71814;SDS011;59659;41.520;23.794;2023-07-13T04:41:31;12.10;;;7.47;;
71814;SDS011;59659;41.520;23.794;2023-07-13T04:42:44;12.13;;;8.03;;
71814;SDS011;59659;41.520;23.794;2023-07-13T04:43:55;12.00;;;7.70;;
71814;SDS011;59659;41.520;23.794;2023-07-13T04:45:07;16.63;;;8.37;;
71814;SDS011;59659;41.520;23.794;2023-07-13T04:46:19;14.87;;;8.17;;
71814;SDS011;59659;41.520;23.794;2023-07-13T04:47:30;14.20;;;7.73;;
71814;SDS011;59659;41.520;23.794;2023-07-13T04:48:42;14.10;;;7.60;;
71814;SDS011;59659;41.520;23.794;2023-07-13T04:49:54;13.87;;;8.20;;
71814;SDS011;59659;41.520;23.794;2023-07-13T04:51:05;15.30;;;7.83;;
71814;SDS011;59659;41.520;23.794;2023-07-13T04:52:17;18.40;;;9.33;;
71814;SDS011;59659;41.520;23.794;2023-07-13T04:53:29;14.37;;;8.87;;
71814;SDS011;59659;41.520;23.794;2023-07-13T04:54:41;13.77;;;8.20;;
71814;SDS011;59659;41.520;23.794;2023-07-13T04:55:53;13.30;;;8.30;;
71814;SDS011;59659;41.520;23.794;2023-07-13T04:57:05;13.17;;;8.07;;
71814;SDS011;59659;41.520;23.794;2023-07-13T04:58:19;14.77;;;8.93;;
71814;SDS011;59659;41.520;23.794;2023-07-13T04:59:31;14.20;;;9.07;;
71814;SDS011;59659;41.520;23.794;2023-07-13T05:00:42;13.33;;;7.90;;
71814;SDS011;59659;41.520;23.794;2023-07-13T05:01:54;15.07;;;8.57;;
71814;SDS011;59659;41.520;23.794;2023-07-13T05:03:06;17.33;;;8.83;;
71814;SDS011;59659;41.520;23.794;2023-07-13T05:04:17;12.70;;;8.00;;
71814;SDS011;59659;41.520;23.794;2023-07-13T05:05:29;11.93;;;7.63;;
71814;SDS011;59659;41.520;23.794;2023-07-13T05:06:41;20.10;;;8.37;;
71814;SDS011;59659;41.520;23.794;2023-07-13T05:07:52;17.77;;;8.13;;
71814;SDS011;59659;41.520;23.794;2023-07-13T05:09:04;14.67;;;8.37;;
71814;SDS011;59659;41.520;23.794;2023-07-13T05:10:16;14.37;;;8.80;;
71814;SDS011;59659;41.520;23.794;2023-07-13T05:11:27;13.30;;;8.63;;
71814;SDS011;59659;41.520;23.794;2023-07-13T05:12:39;14.53;;;9.13;;
71814;SDS011;59659;41.520;23.794;2023-07-13T05:13:50;12.73;;;8.30;;
71814;SDS011;59659;41.520;23.794;2023-07-13T05:15:03;15.27;;;8.60;;
71814;SDS011;59659;41.520;23.794;2023-07-13T05:16:14;15.07;;;8.83;;
71814;SDS011;59659;41.520;23.794;2023-07-13T05:17:26;19.43;;;9.43;;
71814;SDS011;59659;41.520;23.794;2023-07-13T05:18:38;14.10;;;8.67;;
71814;SDS011;59659;41.520;23.794;2023-07-13T05:19:53;11.67;;;7.70;;
71814;SDS011;59659;41.520;23.794;2023-07-13T05:21:06;14.23;;;8.67;;
71814;SDS011;59659;41.520;23.794;2023-07-13T05:22:19;10.67;;;7.80;;
71814;SDS011;59659;41.520;23.794;2023-07-13T05:23:30;13.23;;;8.40;;
71814;SDS011;59659;41.520;23.794;2023-07-13T05:24:42;11.83;;;7.73;;
71814;SDS011;59659;41.520;23.794;2023-07-13T05:25:54;14.73;;;8.33;;
71814;SDS011;59659;41.520;23.794;2023-07-13T05:27:07;14.73;;;8.40;;
71814;SDS011;59659;41.520;23.794;2023-07-13T05:28:19;14.70;;;8.47;;
71814;SDS011;59659;41.520;23.794;2023-07-13T05:29:30;11.83;;;8.07;;
71814;SDS011;59659;41.520;23.794;2023-07-13T05:30:45;15.07;;;8.97;;
71814;SDS011;59659;41.520;23.794;2023-07-13T05:31:57;13.23;;;7.40;;
71814;SDS011;59659;41.520;23.794;2023-07-13T05:33:09;15.60;;;8.07;;
71814;SDS011;59659;41.520;23.794;2023-07-13T05:34:21;11.70;;;7.80;;
71814;SDS011;59659;41.520;23.794;2023-07-13T05:35:32;11.33;;;7.70;;
71814;SDS011;59659;41.520;23.794;2023-07-13T05:36:44;12.23;;;8.57;;
71814;SDS011;59659;41.520;23.794;2023-07-13T05:37:55;16.67;;;8.30;;
71814;SDS011;59659;41.520;23.794;2023-07-13T05:39:07;25.70;;;8.83;;
71814;SDS011;59659;41.520;23.794;2023-07-13T05:40:18;16.67;;;7.93;;
71814;SDS011;59659;41.520;23.794;2023-07-13T05:41:30;12.83;;;7.83;;
71814;SDS011;59659;41.520;23.794;2023-07-13T05:42:41;12.37;;;8.23;;
71814;SDS011;59659;41.520;23.794;2023-07-13T05:43:53;12.03;;;8.67;;
71814;SDS011;59659;41.520;23.794;2023-07-13T05:45:05;13.60;;;8.30;;
71814;SDS011;59659;41.520;23.794;2023-07-13T05:46:17;13.23;;;7.60;;
71814;SDS011;59659;41.520;23.794;2023-07-13T05:47:28;14.33;;;7.90;;
71814;SDS011;59659;41.520;23.794;2023-07-13T05:48:40;15.50;;;9.07;;
71814;SDS011;59659;41.520;23.794;2023-07-13T05:49:51;13.97;;;8.47;;
71814;SDS011;59659;41.520;23.794;2023-07-13T05:51:03;16.97;;;7.97;;
71814;SDS011;59659;41.520;23.794;2023-07-13T05:52:14;13.80;;;8.10;;
71814;SDS011;59659;41.520;23.794;2023-07-13T05:53:26;10.10;;;7.47;;
71814;SDS011;59659;41.520;23.794;2023-07-13T05:54:37;10.47;;;7.87;;
71814;SDS011;59659;41.520;23.794;2023-07-13T05:55:49;11.27;;;7.40;;
71814;SDS011;59659;41.520;23.794;2023-07-13T05:57:04;11.70;;;7.30;;
71814;SDS011;59659;41.520;23.794;2023-07-13T05:58:16;11.60;;;6.80;;
71814;SDS011;59659;41.520;23.794;2023-07-13T05:59:28;9.83;;;6.87;;
71814;SDS011;59659;41.520;23.794;2023-07-13T06:00:40;12.60;;;7.47;;
71814;SDS011;59659;41.520;23.794;2023-07-13T06:01:52;15.53;;;8.03;;
71814;SDS011;59659;41.520;23.794;2023-07-13T06:03:04;12.83;;;7.43;;
71814;SDS011;59659;41.520;23.794;2023-07-13T06:04:18;10.67;;;6.90;;
71814;SDS011;59659;41.520;23.794;2023-07-13T06:05:30;11.83;;;6.83;;
71814;SDS011;59659;41.520;23.794;2023-07-13T06:06:42;10.93;;;7.27;;
71814;SDS011;59659;41.520;23.794;2023-07-13T06:07:53;11.33;;;7.33;;
71814;SDS011;59659;41.520;23.794;2023-07-13T06:09:05;9.87;;;7.43;;
71814;SDS011;59659;41.520;23.794;2023-07-13T06:10:16;10.10;;;7.13;;
71814;SDS011;59659;41.520;23.794;2023-07-13T06:11:28;10.57;;;7.27;;
71814;SDS011;59659;41.520;23.794;2023-07-13T06:12:41;11.10;;;7.63;;
71814;SDS011;59659;41.520;23.794;2023-07-13T06:13:52;14.37;;;7.60;;
71814;SDS011;59659;41.520;23.794;2023-07-13T06:15:04;11.97;;;6.87;;
71814;SDS011;59659;41.520;23.794;2023-07-13T06:16:16;13.63;;;7.60;;
71814;SDS011;59659;41.520;23.794;2023-07-13T06:17:28;10.47;;;7.37;;
71814;SDS011;59659;41.520;23.794;2023-07-13T06:18:40;10.43;;;7.30;;
71814;SDS011;59659;41.520;23.794;2023-07-13T06:19:51;10.67;;;7.63;;
71814;SDS011;59659;41.520;23.794;2023-07-13T06:21:09;16.35;;;7.68;;
71814;SDS011;59659;41.520;23.794;2023-07-13T06:22:21;13.13;;;7.70;;
71814;SDS011;59659;41.520;23.794;2023-07-13T06:23:33;11.20;;;6.83;;
71814;SDS011;59659;41.520;23.794;2023-07-13T06:24:44;12.53;;;7.03;;
71814;SDS011;59659;41.520;23.794;2023-07-13T06:25:56;12.40;;;8.70;;
71814;SDS011;59659;41.520;23.794;2023-07-13T06:27:07;11.27;;;7.93;;
71814;SDS011;59659;41.520;23.794;2023-07-13T06:28:19;9.98;;;6.80;;
71814;SDS011;59659;41.520;23.794;2023-07-13T06:29:30;12.63;;;7.88;;
71814;SDS011;59659;41.520;23.794;2023-07-13T06:30:42;12.38;;;7.50;;
71814;SDS011;59659;41.520;23.794;2023-07-13T06:31:54;11.65;;;8.25;;
71814;SDS011;59659;41.520;23.794;2023-07-13T06:39:32;12.85;;;7.13;;
71814;SDS011;59659;41.520;23.794;2023-07-13T06:40:44;9.73;;;6.95;;
71814;SDS011;59659;41.520;23.794;2023-07-13T06:41:55;12.80;;;6.60;;
71814;SDS011;59659;41.520;23.794;2023-07-13T06:43:07;10.73;;;7.28;;
71814;SDS011;59659;41.520;23.794;2023-07-13T06:44:18;10.18;;;6.78;;
71814;SDS011;59659;41.520;23.794;2023-07-13T06:45:30;9.30;;;5.88;;
71814;SDS011;59659;41.520;23.794;2023-07-13T06:46:44;12.27;;;7.03;;
71814;SDS011;59659;41.520;23.794;2023-07-13T06:47:55;10.50;;;6.68;;
71814;SDS011;59659;41.520;23.794;2023-07-13T06:49:08;8.40;;;6.75;;
71814;SDS011;59659;41.520;23.794;2023-07-13T06:50:19;11.98;;;7.22;;
71814;SDS011;59659;41.520;23.794;2023-07-13T06:51:31;9.95;;;7.07;;
71814;SDS011;59659;41.520;23.794;2023-07-13T06:52:42;10.73;;;7.15;;
71814;SDS011;59659;41.520;23.794;2023-07-13T06:53:54;11.98;;;7.45;;
71814;SDS011;59659;41.520;23.794;2023-07-13T06:55:07;11.10;;;7.60;;
71814;SDS011;59659;41.520;23.794;2023-07-13T06:56:19;10.70;;;7.50;;
71814;SDS011;59659;41.520;23.794;2023-07-13T06:57:30;10.32;;;6.75;;
71814;SDS011;59659;41.520;23.794;2023-07-13T06:58:42;16.73;;;7.53;;
71814;SDS011;59659;41.520;23.794;2023-07-13T06:59:53;12.07;;;7.78;;
71814;SDS011;59659;41.520;23.794;2023-07-13T07:01:05;10.90;;;7.20;;
71814;SDS011;59659;41.520;23.794;2023-07-13T07:02:19;11.45;;;6.75;;
71814;SDS011;59659;41.520;23.794;2023-07-13T07:03:30;12.40;;;6.72;;
71814;SDS011;59659;41.520;23.794;2023-07-13T07:04:42;10.05;;;7.07;;
71814;SDS011;59659;41.520;23.794;2023-07-13T07:05:53;12.57;;;7.65;;
71814;SDS011;59659;41.520;23.794;2023-07-13T07:07:05;11.70;;;7.40;;
71814;SDS011;59659;41.520;23.794;2023-07-13T07:08:16;11.13;;;7.72;;
71814;SDS011;59659;41.520;23.794;2023-07-13T07:09:28;12.00;;;6.55;;
71814;SDS011;59659;41.520;23.794;2023-07-13T07:10:41;11.35;;;6.82;;